Time;durP1;ratioP1;P1;durP2;ratioP2;P2;SDS_P1;SDS_P2;PMS_P1;PMS_P2;Temp;Humidity;BMP_temperature;BMP_pressure;BME280_temperature;BME280_humidity;BME280_pressure;Samples;Min_cycle;Max_cycle;Signal;HPM_P1;HPM_P2
2022/01/25 00:33:27;;;;;;;62.47;37.05;;;;;;;;;;5089574;28;20424;-76
2022/01/25 00:35:53;;;;;;;59.47;36.28;;;;;;;;;;5079293;28;20511;-75
2022/01/25 00:38:19;;;;;;;59.55;36.28;;;;;;;;;;5086796;28;20452;-75
2022/01/25 00:40:45;;;;;;;61.45;37.85;;;;;;;;;;5089475;28;20413;-75
2022/01/25 00:43:11;;;;;;;63.15;37.17;;;;;;;;;;5070106;28;20418;-76
2022/01/25 00:45:38;;;;;;;62.35;37.00;;;;;;;;;;5074133;28;20945;-76
2022/01/25 00:48:06;;;;;;;65.53;38.60;;;;;;;;;;5094535;28;20417;-76
2022/01/25 00:50:39;;;;;;;62.92;37.55;;;;;;;;;;5087704;28;20490;-75
2022/01/25 00:55:33;;;;;;;63.30;37.65;;;;;;;;;;5086065;28;20422;-75
2022/01/25 00:57:59;;;;;;;62.17;37.95;;;;;;;;;;5083998;28;21001;-75
2022/01/25 01:00:25;;;;;;;60.67;37.40;;;;;;;;;;5088410;28;20488;-75
2022/01/25 01:02:52;;;;;;;60.03;37.47;;;;;;;;;;5062241;28;20448;-75
2022/01/25 01:05:18;;;;;;;62.30;38.88;;;;;;;;;;5067535;28;20422;-75
2022/01/25 01:07:45;;;;;;;62.30;37.80;;;;;;;;;;5070090;28;20565;-76
2022/01/25 01:10:14;;;;;;;64.45;38.78;;;;;;;;;;5088562;28;20425;-76
2022/01/25 01:15:43;;;;;;;62.25;38.00;;;;;;;;;;5104567;28;20414;-76
2022/01/25 01:29:21;;;;;;;60.83;38.17;;;;;;;;;;5093134;28;20946;-77
2022/01/25 01:40:05;;;;;;;63.22;39.08;;;;;;;;;;5083364;28;20418;-77
2022/01/25 01:45:23;;;;;;;65.55;39.55;;;;;;;;;;5092302;28;22227;-76
2022/01/25 01:47:50;;;;;;;62.53;39.05;;;;;;;;;;5090856;28;20481;-76
2022/01/25 01:50:28;;;;;;;65.18;39.72;;;;;;;;;;5061857;28;20427;-75
2022/01/25 01:52:54;;;;;;;64.85;39.83;;;;;;;;;;5053841;28;20427;-75
2022/01/25 01:55:27;;;;;;;65.93;39.65;;;4.80;99.90;;;;;;5089573;28;20425;-75
2022/01/25 01:57:54;;;;;;;61.88;39.00;;;;;;;;;;5094748;28;20423;-75
2022/01/25 02:00:21;;;;;;;62.15;38.88;;;;;;;;;;5075500;28;20925;-76
2022/01/25 02:02:47;;;;;;;66.90;40.97;;;;;;;;;;5071194;28;20496;-76
2022/01/25 02:05:13;;;;;;;63.08;39.50;;;;;;;;;;5067256;28;20924;-75
2022/01/25 02:07:40;;;;;;;65.82;40.85;;;;;;;;;;5072615;28;20416;-75
2022/01/25 02:10:07;;;;;;;62.13;38.83;;;;;;;;;;5069362;28;20777;-75
2022/01/25 02:12:36;;;;;;;62.97;38.35;;;;;;;;;;5090496;28;20994;-75
2022/01/25 02:15:03;;;;;;;63.72;38.83;;;;;;;;;;5091611;28;20417;-75
2022/01/25 02:22:52;;;;;;;65.83;40.33;;;;;;;;;;5084055;28;20897;-76
2022/01/25 02:25:18;;;;;;;65.60;40.08;;;;;;;;;;5084540;28;20736;-76
2022/01/25 02:27:44;;;;;;;67.78;40.90;;;;;;;;;;5088795;28;20430;-76
2022/01/25 02:30:10;;;;;;;64.40;38.83;;;;;;;;;;5096866;28;20419;-75
2022/01/25 02:32:37;;;;;;;63.78;39.63;;;;;;;;;;5075491;28;20449;-76
2022/01/25 02:35:03;;;;;;;65.43;39.78;;;;;;;;;;5085861;28;20483;-75
2022/01/25 02:37:29;;;;;;;66.33;39.37;;;;;;;;;;5068996;28;21077;-76
2022/01/25 02:39:55;;;;;;;66.93;39.15;;;;;;;;;;5088020;28;20425;-75
2022/01/25 02:42:24;;;;;;;67.55;38.97;;;;;;;;;;5074798;28;20432;-76
2022/01/25 02:44:50;;;;;;;63.80;38.42;;;;;;;;;;5085385;28;20421;-75
2022/01/25 02:50:01;;;;;;;63.83;39.13;;;;;;;;;;5089677;28;20427;-76
2022/01/25 02:52:27;;;;;;;66.00;39.90;;;;;;;;;;5089314;28;21056;-75
2022/01/25 02:54:53;;;;;;;65.90;37.85;;;;;;;;;;5086236;28;20486;-75
2022/01/25 02:57:19;;;;;;;64.40;39.17;;;;;;;;;;5086012;28;20413;-75
2022/01/25 02:59:46;;;;;;;67.47;40.20;;;;;;;;;;5070400;28;20418;-75
2022/01/25 03:02:12;;;;;;;62.75;37.13;;;;;;;;;;5087588;28;20414;-76
2022/01/25 03:04:39;;;;;;;66.80;39.30;;;;;;;;;;5068087;28;20522;-75
2022/01/25 03:07:05;;;;;;;64.28;38.70;;;;;;;;;;5084204;28;20410;-76
2022/01/25 03:09:31;;;;;;;65.18;39.03;;;;;;;;;;5069476;28;20436;-75
2022/01/25 03:12:00;;;;;;;67.77;40.17;;;;;;;;;;5049310;28;20550;-75
2022/01/25 03:14:31;;;;;;;64.93;38.10;;;;;;;;;;5067938;28;21003;-75
2022/01/25 03:22:15;;;;;;;62.75;38.13;;;;;;;;;;5083730;28;20445;-76
2022/01/25 03:24:41;;;;;;;61.58;37.47;;;;;;;;;;5069925;28;20422;-75
2022/01/25 03:27:07;;;;;;;64.03;39.35;;;;;;;;;;5073704;28;20777;-75
2022/01/25 03:29:33;;;;;;;66.07;38.23;;;;;;;;;;5064341;28;20468;-75
2022/01/25 03:31:59;;;;;;;69.07;38.88;;;;;;;;;;5086976;28;20853;-75
2022/01/25 03:34:25;;;;;;;63.17;37.75;;;;;;;;;;5077923;28;20516;-75
2022/01/25 03:36:51;;;;;;;67.32;38.15;;;;;;;;;;5068720;28;20432;-75
2022/01/25 03:39:17;;;;;;;64.40;37.22;;;;;;;;;;5072495;28;20426;-75
2022/01/25 03:41:43;;;;;;;65.87;38.07;;;;;;;;;;5087578;28;20422;-76
2022/01/25 03:44:10;;;;;;;64.63;37.85;;;;;;;;;;5070073;28;20437;-76
2022/01/25 03:46:53;;;;;;;64.73;37.50;;;;;;;;;;5065600;28;20431;-76
2022/01/25 03:52:07;;;;;;;66.38;38.28;;;;;;;;;;5084348;28;20421;-76
2022/01/25 03:54:33;;;;;;;65.65;37.42;;;;;;;;;;5074001;28;20446;-76
2022/01/25 03:56:59;;;;;;;63.97;37.75;;;;;;;;;;5087174;28;20433;-76
2022/01/25 03:59:26;;;;;;;63.22;36.85;;;;;;;;;;5084229;28;20482;-76
2022/01/25 04:01:52;;;;;;;62.35;37.85;;;;;;;;;;5091066;28;20926;-76
2022/01/25 04:04:22;;;;;;;64.30;38.17;;;;;;;;;;5065738;28;20584;-76
2022/01/25 04:06:51;;;;;;;65.78;37.47;;;;;;;;;;5086940;28;20419;-76
2022/01/25 04:09:17;;;;;;;64.70;37.40;;;;;;;;;;5108182;27;20427;-76
2022/01/25 04:11:44;;;;;;;67.88;38.50;;;;;;;;;;5115660;27;20413;-76
2022/01/25 04:14:10;;;;;;;64.13;37.70;;;;;;;;;;5073675;28;20422;-76
2022/01/25 04:16:43;;;;;;;66.95;38.05;;;;;;;;;;5087669;28;20424;-76
2022/01/25 04:19:14;;;;;;;67.30;38.53;;;;;;;;;;5081063;28;20412;-76
2022/01/25 04:24:40;;;;;;;63.58;36.30;;;;;;;;;;5073171;28;20449;-75
2022/01/25 04:27:10;;;;;;;66.17;38.23;;;;;;;;;;5089331;28;20463;-76
2022/01/25 04:29:36;;;;;;;65.70;37.97;;;;;;;;;;5089483;28;20419;-76
2022/01/25 04:32:06;;;;;;;64.90;37.42;;;;;;;;;;5101165;28;20458;-76
2022/01/25 04:48:53;;;;;;;69.38;38.80;;;;;;;;;;5086383;28;20520;-75
2022/01/25 04:55:48;;;;;;;73.10;41.88;;;;;;;;;;5071599;28;20456;-75
2022/01/25 04:58:22;;;;;;;70.13;40.13;;;;;;;;;;5086597;28;20422;-76
2022/01/25 05:00:50;;;;;;;70.75;40.85;;;;;;;;;;5073564;28;20932;-76
2022/01/25 05:03:22;;;;;;;68.70;39.60;;;;;;;;;;5072765;28;20421;-75
2022/01/25 05:08:46;;;;;;;71.60;40.97;;;;;;;;;;5086528;28;21087;-76
2022/01/25 05:18:49;;;;;;;68.72;39.67;;;;;;;;;;5087600;28;20414;-75
2022/01/25 05:24:00;;;;;;;68.43;40.60;;;;;;;;;;5070916;28;20519;-76
2022/01/25 05:26:27;;;;;;;71.75;41.58;;;;;;;;;;5088701;28;20418;-75
2022/01/25 05:28:53;;;;;;;70.40;39.72;;;;;;;;;;5089164;28;20451;-75
2022/01/25 05:31:19;;;;;;;70.40;40.03;;;;;;;;;;5069495;28;20742;-75
2022/01/25 05:33:46;;;;;;;71.60;40.57;;;;;;;;;;5069428;28;20523;-75
2022/01/25 05:36:13;;;;;;;67.93;39.97;;;;;;;;;;5078954;28;20474;-75
2022/01/25 05:38:39;;;;;;;69.53;40.50;;;;;;;;;;5072025;28;20421;-75
2022/01/25 05:41:05;;;;;;;68.88;40.08;;;;;;;;;;5115851;27;20513;-76
2022/01/25 05:46:19;;;;;;;68.80;40.22;;;;;;;;;;5088113;28;20449;-76
2022/01/25 05:48:47;;;;;;;68.65;40.10;;;;;;;;;;5069980;28;20439;-75
2022/01/25 05:51:13;;;;;;;69.53;40.88;;;;;;;;;;5069146;28;20423;-76
2022/01/25 05:53:42;;;;;;;75.13;41.75;;;;;;;;;;5071987;28;20935;-75
2022/01/25 05:56:09;;;;;;;74.55;41.70;;;;;;;;;;5084361;28;20855;-76
2022/01/25 05:58:35;;;;;;;68.47;40.20;;;;;;;;;;5083597;28;20468;-76
2022/01/25 06:01:01;;;;;;;74.50;42.03;;;;;;;;;;5053178;28;20947;-76
2022/01/25 06:03:27;;;;;;;79.00;43.88;;;;;;;;;;5072490;28;20414;-75
2022/01/25 06:05:53;;;;;;;66.97;40.00;;;;;;;;;;5063639;28;20419;-76
2022/01/25 06:08:19;;;;;;;69.45;40.80;;;;;;;;;;5081948;28;20421;-76
2022/01/25 06:10:45;;;;;;;71.25;41.15;;;;;;;;;;5072354;28;20421;-76
2022/01/25 06:13:11;;;;;;;70.37;40.47;;;;;;;;;;5071656;28;20406;-76
2022/01/25 06:15:37;;;;;;;71.95;40.83;;;;;;;;;;5086776;28;21206;-76
2022/01/25 06:18:03;;;;;;;72.05;41.95;;;;;;;;;;5088554;28;20789;-75
2022/01/25 06:20:30;;;;;;;71.55;41.33;;;;;;;;;;5069558;28;20733;-76
2022/01/25 06:22:56;;;;;;;79.60;43.30;;;;;;;;;;5063832;28;20427;-77
2022/01/25 06:25:22;;;;;;;69.75;40.55;;;;;;;;;;5087625;28;20409;-76
2022/01/25 06:27:48;;;;;;;75.30;42.17;;;;;;;;;;5099610;28;20414;-76
2022/01/25 06:30:15;;;;;;;79.82;44.45;;;;;;;;;;5089620;27;21981;-76
2022/01/25 06:32:42;;;;;;;81.25;45.35;;;;;;;;;;5086651;28;20500;-76
2022/01/25 06:35:08;;;;;;;73.95;42.80;;;;;;;;;;5067548;28;20413;-76
2022/01/25 06:37:35;;;;;;;75.65;43.65;;;4.60;99.90;;;;;;5069556;28;20413;-76
2022/01/25 06:40:01;;;;;;;70.85;41.53;;;;;;;;;;5070950;28;20544;-76
2022/01/25 06:42:30;;;;;;;73.67;41.53;;;;;;;;;;5085062;28;20581;-76
2022/01/25 06:45:00;;;;;;;75.78;42.38;;;;;;;;;;5075489;28;20452;-76
2022/01/25 06:47:26;;;;;;;72.63;40.58;;;;;;;;;;5069890;28;20426;-76
2022/01/25 06:49:52;;;;;;;74.22;41.20;;;;;;;;;;5069276;28;20423;-77
2022/01/25 06:52:18;;;;;;;71.20;40.20;;;;;;;;;;5085860;28;20417;-76
2022/01/25 06:54:44;;;;;;;74.60;41.10;;;;;;;;;;5088317;28;20484;-76
2022/01/25 06:57:11;;;;;;;73.03;43.13;;;;;;;;;;5067799;28;20501;-76
2022/01/25 06:59:37;;;;;;;73.28;41.97;;;;;;;;;;5076548;28;20424;-75
2022/01/25 07:02:03;;;;;;;69.28;40.08;;;;;;;;;;5062672;28;20514;-76
2022/01/25 07:04:30;;;;;;;72.47;40.85;;;;;;;;;;5087123;28;20969;-75
2022/01/25 07:06:56;;;;;;;70.45;40.70;;;;;;;;;;5083308;28;20426;-77
2022/01/25 07:09:22;;;;;;;69.75;40.03;;;;;;;;;;5088226;28;20413;-77
2022/01/25 07:11:48;;;;;;;73.82;41.33;;;;;;;;;;5070280;28;20418;-76
2022/01/25 07:14:14;;;;;;;77.03;40.95;;;;;;;;;;5085827;28;20439;-76
2022/01/25 07:16:41;;;;;;;70.93;40.78;;;;;;;;;;5066070;28;20432;-76
2022/01/25 07:19:07;;;;;;;75.03;40.67;;;;;;;;;;5094726;28;20435;-77
2022/01/25 07:21:33;;;;;;;72.40;41.72;;;;;;;;;;5082902;28;20470;-77
2022/01/25 07:23:59;;;;;;;70.32;40.88;;;;;;;;;;5070167;28;20436;-77
2022/01/25 07:26:25;;;;;;;69.15;40.10;;;;;;;;;;5087003;28;20855;-77
2022/01/25 07:28:51;;;;;;;69.88;39.47;;;;;;;;;;5092763;28;20419;-78
2022/01/25 07:31:17;;;;;;;74.18;42.28;;;;;;;;;;5069617;28;20460;-77
2022/01/25 07:33:44;;;;;;;72.97;41.00;;;;;;;;;;5052211;28;20456;-77
2022/01/25 07:36:10;;;;;;;75.88;42.00;;;;;;;;;;5083547;28;20425;-78
2022/01/25 07:38:36;;;;;;;74.35;42.25;;;;;;;;;;5087110;28;20792;-77
2022/01/25 07:41:02;;;;;;;74.93;41.83;;;;;;;;;;5091624;28;20441;-77
2022/01/25 07:43:28;;;;;;;76.00;41.33;;;;;;;;;;5099723;28;20851;-77
2022/01/25 07:45:56;;;;;;;77.63;41.30;;;;;;;;;;5099739;28;20972;-77
2022/01/25 07:48:24;;;;;;;76.57;41.78;;;;;;;;;;5108768;27;20423;-77
2022/01/25 07:50:51;;;;;;;76.90;43.27;;;;;;;;;;5076196;28;20556;-78
2022/01/25 07:53:17;;;;;;;76.63;42.63;;;;;;;;;;5075865;28;20506;-78
2022/01/25 07:55:46;;;;;;;78.47;42.00;;;;;;;;;;5091717;28;20417;-78
2022/01/25 07:58:12;;;;;;;74.68;42.33;;;;;;;;;;5090284;28;20977;-78
2022/01/25 08:00:38;;;;;;;74.78;41.47;;;;;;;;;;5078938;28;20407;-78
2022/01/25 08:03:04;;;;;;;74.83;42.43;;;;;;;;;;5076894;28;20960;-79
2022/01/25 08:05:31;;;;;;;72.93;40.70;;;;;;;;;;5085067;28;20432;-78
2022/01/25 08:07:59;;;;;;;74.68;41.55;;;;;;;;;;5089712;28;20773;-78
2022/01/25 08:10:25;;;;;;;71.85;41.03;;;;;;;;;;5058297;28;20415;-78
2022/01/25 08:12:51;;;;;;;67.37;38.73;;;;;;;;;;5074200;28;20411;-77
2022/01/25 08:15:17;;;;;;;73.43;40.45;;;;;;;;;;5104772;28;20422;-77
2022/01/25 08:17:44;;;;;;;70.38;40.97;;;;;;;;;;5090154;27;20414;-79
2022/01/25 08:20:10;;;;;;;77.50;40.83;;;;;;;;;;5075331;28;20409;-78
2022/01/25 08:22:36;;;;;;;69.80;39.97;;;;;;;;;;5104636;28;20893;-78
2022/01/25 08:25:04;;;;;;;69.32;39.75;;;;;;;;;;5091894;28;20919;-78
2022/01/25 08:27:30;;;;;;;72.03;40.17;;;;;;;;;;5091092;28;20482;-77
2022/01/25 08:29:56;;;;;;;73.28;41.10;;;;;;;;;;5068291;28;20421;-78
2022/01/25 08:32:22;;;;;;;73.60;40.38;;;;;;;;;;5052068;28;20454;-77
2022/01/25 08:34:48;;;;;;;74.40;41.75;;;;;;;;;;5061105;28;20433;-78
2022/01/25 08:37:15;;;;;;;75.75;41.70;;;;;;;;;;5097329;27;20925;-77
2022/01/25 08:39:41;;;;;;;70.25;39.42;;;;;;;;;;5087295;28;20482;-77
2022/01/25 08:42:08;;;;;;;68.78;39.55;;;;;;;;;;5075062;28;20493;-77
2022/01/25 08:44:35;;;;;;;72.10;41.35;;;;;;;;;;5108867;27;20451;-77
2022/01/25 08:47:01;;;;;;;78.95;43.13;;;;;;;;;;5107727;27;20413;-77
2022/01/25 08:49:30;;;;;;;72.05;40.08;;;;;;;;;;5066922;28;20426;-77
2022/01/25 08:51:56;;;;;;;73.97;41.42;;;;;;;;;;5101398;28;20435;-76
2022/01/25 08:54:22;;;;;;;71.85;40.28;;;;;;;;;;5088901;28;20416;-77
2022/01/25 08:56:48;;;;;;;69.53;40.17;;;;;;;;;;5087485;28;20487;-76
2022/01/25 08:59:14;;;;;;;69.97;40.00;;;;;;;;;;5078534;28;20429;-77
2022/01/25 09:01:40;;;;;;;72.68;39.88;;;;;;;;;;5077249;28;20924;-77
2022/01/25 09:04:06;;;;;;;74.65;39.63;;;;;;;;;;5090928;28;20465;-77
2022/01/25 09:06:34;;;;;;;76.40;40.65;;;;;;;;;;5066974;28;20435;-77
2022/01/25 09:09:01;;;;;;;74.10;41.33;;;;;;;;;;5066976;28;20502;-78
2022/01/25 09:11:28;;;;;;;68.72;39.28;;;;;;;;;;5089655;28;20426;-76
2022/01/25 09:13:54;;;;;;;71.90;40.08;;;;;;;;;;5085713;28;20411;-78
2022/01/25 09:16:20;;;;;;;70.05;39.45;;;;;;;;;;5089088;28;20483;-77
2022/01/25 09:18:46;;;;;;;70.88;41.88;;;;;;;;;;5071978;28;20421;-77
2022/01/25 09:21:12;;;;;;;73.53;40.08;;;;;;;;;;5089386;28;20455;-77
2022/01/25 09:23:38;;;;;;;74.80;40.90;;;;;;;;;;5065293;28;20443;-78
2022/01/25 09:26:05;;;;;;;73.00;40.33;;;;;;;;;;5062934;28;20432;-78
2022/01/25 09:28:31;;;;;;;74.43;39.93;;;;;;;;;;5090076;28;20509;-77
2022/01/25 09:30:57;;;;;;;69.20;38.72;;;;;;;;;;5067537;28;20421;-77
2022/01/25 09:33:24;;;;;;;72.05;40.50;;;;;;;;;;5080781;28;20422;-77
2022/01/25 09:35:51;;;;;;;68.57;38.20;;;;;;;;;;5077285;28;20428;-77
2022/01/25 09:38:17;;;;;;;72.10;40.75;;;;;;;;;;5051715;28;20483;-76
2022/01/25 09:40:44;;;;;;;72.78;39.70;;;;;;;;;;5081172;28;20882;-76
2022/01/25 09:43:10;;;;;;;71.63;38.65;;;;;;;;;;5084639;28;20459;-76
2022/01/25 09:45:37;;;;;;;72.70;39.90;;;;;;;;;;5065993;28;20433;-76
2022/01/25 09:48:04;;;;;;;72.78;38.92;;;4.70;99.90;;;;;;5070173;28;20444;-76
2022/01/25 09:50:31;;;;;;;70.88;39.58;;;;;;;;;;5062814;28;20416;-76
2022/01/25 09:52:59;;;;;;;75.35;40.22;;;;;;;;;;5068742;28;20902;-76
2022/01/25 09:55:26;;;;;;;74.80;39.75;;;;;;;;;;5066209;28;20415;-76
2022/01/25 09:57:52;;;;;;;73.50;39.72;;;;;;;;;;5072338;28;20429;-76
2022/01/25 10:00:21;;;;;;;70.00;39.72;;;;;;;;;;5085680;28;20632;-76
2022/01/25 10:02:55;;;;;;;74.22;41.75;;;;;;;;;;5086760;28;20402;-76
2022/01/25 10:05:30;;;;;;;71.45;39.47;;;;;;;;;;5085904;28;20445;-76
2022/01/25 10:07:57;;;;;;;72.13;40.45;;;;;;;;;;5072412;28;20467;-76
2022/01/25 10:10:24;;;;;;;75.35;40.67;;;;;;;;;;5067890;28;20871;-76
2022/01/25 10:12:50;;;;;;;73.25;40.72;;;;;;;;;;5086072;28;20410;-76
2022/01/25 10:15:16;;;;;;;72.07;40.13;;;;;;;;;;5086796;28;20410;-76
2022/01/25 10:17:43;;;;;;;71.93;38.78;;;;;;;;;;5087111;28;20409;-77
2022/01/25 10:20:30;;;;;;;71.15;39.40;;;4.80;99.90;;;;;;5085647;28;20421;-76
2022/01/25 10:22:59;;;;;;;72.35;38.95;;;;;;;;;;5111130;27;20472;-77
2022/01/25 10:25:42;;;;;;;73.63;40.38;;;4.80;99.90;;;;;;5081830;28;20406;-77
2022/01/25 10:28:12;;;;;;;73.18;39.88;;;;;;;;;;5066554;28;20416;-77
2022/01/25 10:30:46;;;;;;;73.60;39.72;;;;;;;;;;5079945;28;20497;-77
2022/01/25 10:33:37;;;;;;;73.07;40.25;;;4.70;99.90;;;;;;5085563;28;20905;-77
2022/01/25 10:36:10;;;;;;;74.57;40.43;;;;;;;;;;5094688;28;20462;-77
2022/01/25 10:38:36;;;;;;;77.07;41.25;;;;;;;;;;5086800;28;20810;-77
2022/01/25 10:41:08;;;;;;;78.07;40.88;;;;;;;;;;5079200;28;20420;-77
2022/01/25 10:43:34;;;;;;;74.95;40.13;;;;;;;;;;5071619;28;20452;-77
2022/01/25 10:46:04;;;;;;;75.23;40.70;;;;;;;;;;5088084;28;20414;-77
2022/01/25 10:48:30;;;;;;;76.10;41.47;;;;;;;;;;5085444;28;20421;-77
2022/01/25 10:51:10;;;;;;;76.67;41.17;;;;;;;;;;5080968;28;20424;-77
2022/01/25 10:53:36;;;;;;;77.57;41.13;;;;;;;;;;5072849;28;20450;-77
2022/01/25 10:56:04;;;;;;;77.55;40.75;;;5.00;99.90;;;;;;5085269;28;20410;-77
2022/01/25 10:58:30;;;;;;;77.97;40.53;;;;;;;;;;5049051;28;20418;-77
2022/01/25 11:00:59;;;;;;;73.82;39.72;;;;;;;;;;5069393;28;20430;-77
2022/01/25 11:03:26;;;;;;;80.13;41.88;;;;;;;;;;5084796;28;20410;-77
2022/01/25 11:05:52;;;;;;;81.35;42.63;;;;;;;;;;5068871;28;20548;-77
2022/01/25 11:08:21;;;;;;;81.82;41.78;;;4.80;99.90;;;;;;5073531;28;20463;-78
2022/01/25 11:10:53;;;;;;;76.97;41.57;;;;;;;;;;5067509;28;20485;-78
2022/01/25 11:13:40;;;;;;;79.53;41.60;;;;;;;;;;5087817;28;20425;-78
2022/01/25 11:16:07;;;;;;;81.30;41.22;;;;;;;;;;5063099;28;20506;-77
2022/01/25 11:18:34;;;;;;;77.93;41.83;;;;;;;;;;5087645;28;20442;-77
2022/01/25 11:21:02;;;;;;;83.35;43.75;;;;;;;;;;5086145;28;20427;-77
2022/01/25 11:23:31;;;;;;;83.18;42.95;;;;;;;;;;5084331;28;20413;-77
2022/01/25 11:25:57;;;;;;;81.45;42.40;;;;;;;;;;5067047;28;20422;-76
2022/01/25 11:28:23;;;;;;;77.57;41.78;;;;;;;;;;5112759;27;20418;-76
2022/01/25 11:30:50;;;;;;;78.53;41.60;;;;;;;;;;5120408;27;20421;-76
2022/01/25 11:33:18;;;;;;;88.67;46.07;;;;;;;;;;5093516;28;20428;-76
2022/01/25 11:35:45;;;;;;;76.28;42.10;;;;;;;;;;5086418;28;20434;-76
2022/01/25 11:38:11;;;;;;;78.00;41.08;;;;;;;;;;5083490;28;20929;-76
2022/01/25 11:40:39;;;;;;;80.40;41.95;;;;;;;;;;5085829;28;20422;-75
2022/01/25 11:43:11;;;;;;;78.57;42.20;;;;;;;;;;5083990;28;20433;-76
2022/01/25 11:45:40;;;;;;;82.15;43.40;;;4.90;99.90;;;;;;5112659;28;20410;-76
2022/01/25 11:48:06;;;;;;;76.05;40.88;;;;;;;;;;5105233;28;20451;-76
2022/01/25 11:50:34;;;;;;;74.07;40.05;;;;;;;;;;5086494;28;20820;-76
2022/01/25 11:53:06;;;;;;;75.00;40.57;;;;;;;;;;5073332;28;20504;-76
2022/01/25 11:55:34;;;;;;;76.03;40.47;;;;;;;;;;5107177;27;20479;-76
2022/01/25 11:58:06;;;;;;;74.05;40.35;;;;;;;;;;5082935;28;20816;-76
2022/01/25 12:00:41;;;;;;;73.85;41.20;;;;;;;;;;5062168;28;20417;-76
2022/01/25 12:03:28;;;;;;;78.15;40.80;;;4.80;99.90;;;;;;5083565;28;20409;-76
2022/01/25 12:06:18;;;;;;;78.25;41.15;;;;;;;;;;5064896;28;20424;-78
2022/01/25 12:12:07;;;;;;;78.95;42.35;;;;;;;;;;5084962;28;20490;-76
2022/01/25 12:14:37;;;;;;;85.28;42.05;;;;;;;;;;5104211;28;20422;-79
2022/01/25 12:17:03;;;;;;;77.10;40.90;;;;;;;;;;5068670;28;20453;-79
2022/01/25 12:19:34;;;;;;;79.47;41.85;;;;;;;;;;5066129;28;20423;-83
2022/01/25 12:22:02;;;;;;;75.20;40.67;;;;;;;;;;5079137;28;20950;-83
2022/01/25 12:24:50;;;;;;;82.18;43.67;;;;;;;;;;5082235;28;20482;-83
2022/01/25 12:29:58;;;;;;;78.75;41.40;;;;;;;;;;5092908;28;20412;-83
2022/01/25 12:32:36;;;;;;;84.35;42.80;;;;;;;;;;5087149;28;20429;-82
2022/01/25 12:35:05;;;;;;;80.13;42.30;;;;;;;;;;5063745;28;20430;-82
2022/01/25 12:37:43;;;;;;;85.38;43.55;;;;;;;;;;5089901;28;20461;-82
2022/01/25 12:40:25;;;;;;;83.90;43.15;;;;;;;;;;5069783;28;20426;-83
2022/01/25 12:42:52;;;;;;;82.00;43.45;;;;;;;;;;5071607;28;20488;-82
2022/01/25 12:45:19;;;;;;;81.78;42.22;;;;;;;;;;5062288;28;20421;-82
2022/01/25 12:47:55;;;;;;;85.25;44.13;;;;;;;;;;5064757;28;20818;-81
2022/01/25 12:50:22;;;;;;;86.60;44.03;;;;;;;;;;5083764;28;20426;-81
2022/01/25 12:52:49;;;;;;;86.38;45.60;;;;;;;;;;5079217;28;20458;-82
2022/01/25 12:55:15;;;;;;;90.72;45.78;;;;;;;;;;5083575;28;20420;-82
2022/01/25 12:57:48;;;;;;;87.28;45.10;;;;;;;;;;5072983;28;20414;-83
2022/01/25 13:00:14;;;;;;;88.22;45.28;;;;;;;;;;5083952;28;20546;-80
2022/01/25 13:02:41;;;;;;;93.40;46.63;;;;;;;;;;5088082;28;20444;-81
2022/01/25 13:05:17;;;;;;;91.35;45.95;;;;;;;;;;5089422;28;20420;-79
2022/01/25 13:07:44;;;;;;;91.60;47.33;;;;;;;;;;5086265;28;20429;-80
2022/01/25 13:10:12;;;;;;;94.38;48.17;;;;;;;;;;5088308;28;20417;-82
2022/01/25 13:12:55;;;;;;;94.38;47.53;;;;;;;;;;5081284;28;20455;-82
2022/01/25 13:18:14;;;;;;;87.37;47.23;;;;;;;;;;5111381;27;20445;-82
2022/01/25 13:20:43;;;;;;;94.80;48.15;;;;;;;;;;5093402;28;20408;-81
2022/01/25 13:23:10;;;;;;;96.85;48.85;;;;;;;;;;5067633;28;20413;-81
2022/01/25 13:26:05;;;;;;;95.25;49.25;;;;;;;;;;5089082;28;20938;-82
2022/01/25 13:28:52;;;;;;;97.38;48.30;;;;;;;;;;5080120;28;20419;-81
2022/01/25 13:31:19;;;;;;;93.50;47.53;;;;;;;;;;5087592;28;20414;-83
2022/01/25 13:33:46;;;;;;;94.57;47.45;;;;;;;;;;5062173;28;20415;-83
2022/01/25 13:36:16;;;;;;;93.55;47.75;;;;;;;;;;5090638;22;20431;-77
2022/01/25 13:38:43;;;;;;;86.30;45.07;;;;;;;;;;5061758;28;20461;-77
2022/01/25 13:46:30;;;;;;;90.47;46.20;;;;;;;;;;5071032;28;20488;-77
2022/01/25 13:49:07;;;;;;;92.10;46.40;;;;;;;;;;5072530;28;20460;-77
2022/01/25 13:51:38;;;;;;;89.00;47.15;;;;;;;;;;5073866;28;20467;-77
2022/01/25 13:54:05;;;;;;;94.68;47.22;;;;;;;;;;5075492;28;20539;-78
2022/01/25 13:56:33;;;;;;;99.63;48.50;;;;;;;;;;5077462;28;20431;-76
2022/01/25 13:59:04;;;;;;;91.80;47.65;;;;;;;;;;5071666;28;20433;-76
2022/01/25 14:01:32;;;;;;;98.90;49.72;;;;;;;;;;5043179;28;20430;-76
2022/01/25 14:04:07;;;;;;;98.53;49.22;;;;;;;;;;5061959;28;20955;-76
2022/01/25 14:06:40;;;;;;;103.03;50.50;;;;;;;;;;5075204;28;20460;-77
2022/01/25 14:09:06;;;;;;;99.38;51.65;;;;;;;;;;5077129;28;20423;-75
2022/01/25 14:22:50;;;;;;;111.47;53.30;;;;;;;;;;5077479;28;20428;-76
2022/01/25 14:25:08;;;;;;;111.90;54.78;;;;;;;;;;5068575;28;20416;-76
2022/01/25 14:27:46;;;;;;;109.00;53.42;;;;;;;;;;5074972;28;20425;-76
2022/01/25 14:30:15;;;;;;;108.00;54.07;;;;;;;;;;5074627;28;20450;-77
2022/01/25 14:32:41;;;;;;;113.10;54.72;;;;;;;;;;5052007;28;20482;-76
2022/01/25 14:35:08;;;;;;;116.90;54.80;;;;;;;;;;5040648;28;20427;-76
2022/01/25 14:37:35;;;;;;;119.57;56.35;;;;;;;;;;5069995;28;20476;-77
2022/01/25 14:40:07;;;;;;;126.83;59.27;;;;;;;;;;5035311;28;20436;-77
2022/01/25 14:42:33;;;;;;;127.07;62.22;;;;;;;;;;5069759;28;20967;-77
2022/01/25 14:45:07;;;;;;;119.77;57.20;;;;;;;;;;5073195;28;20447;-77
2022/01/25 14:47:38;;;;;;;123.43;56.92;;;;;;;;;;5066064;28;20421;-76
2022/01/25 14:50:07;;;;;;;118.10;58.07;;;;;;;;;;5059845;28;20590;-77
2022/01/25 14:52:34;;;;;;;121.40;58.78;;;;;;;;;;5076486;28;20411;-77
2022/01/25 14:55:00;;;;;;;125.32;57.25;;;;;;;;;;5055416;28;20418;-77
2022/01/25 14:57:37;;;;;;;116.80;54.10;;;;;;;;;;5073762;28;20458;-76
2022/01/25 15:00:05;;;;;;;114.53;54.33;;;;;;;;;;5052100;28;20458;-76
2022/01/25 15:02:32;;;;;;;115.25;53.92;;;;;;;;;;5076758;28;20426;-77
2022/01/25 15:04:58;;;;;;;111.03;52.13;;;;;;;;;;5071101;28;20466;-76
2022/01/25 15:07:34;;;;;;;115.78;54.72;;;;;;;;;;5052653;28;20422;-76
2022/01/25 15:10:03;;;;;;;106.68;52.05;;;;;;;;;;5073982;28;20412;-76
2022/01/25 15:12:45;;;;;;;109.10;51.67;;;;;;;;;;5075522;28;20702;-76
2022/01/25 15:15:15;;;;;;;108.90;50.13;;;;;;;;;;5076695;28;20435;-77
2022/01/25 15:17:41;;;;;;;99.30;47.90;;;;;;;;;;5076939;28;20441;-76
2022/01/25 15:20:09;;;;;;;98.25;46.63;;;;;;;;;;5075463;28;20427;-76
2022/01/25 15:22:36;;;;;;;97.82;45.95;;;;;;;;;;5058004;28;20428;-74
2022/01/25 15:25:02;;;;;;;95.25;45.45;;;;;;;;;;5059907;28;20941;-76
2022/01/25 15:27:29;;;;;;;94.55;45.85;;;;;;;;;;5075439;28;20415;-76
2022/01/25 15:29:56;;;;;;;94.47;44.28;;;;;;;;;;5041207;28;20494;-77
2022/01/25 15:32:23;;;;;;;89.80;43.20;;;;;;;;;;5061623;28;20422;-77
2022/01/25 15:34:49;;;;;;;93.95;44.03;;;;;;;;;;5074526;28;20426;-76
2022/01/25 15:37:15;;;;;;;97.63;45.03;;;;;;;;;;5059051;28;20482;-76
2022/01/25 15:39:42;;;;;;;101.40;44.80;;;;;;;;;;5075414;28;20428;-76
2022/01/25 15:42:09;;;;;;;98.15;44.13;;;;;;;;;;5057432;28;20443;-76
2022/01/25 15:44:46;;;;;;;97.80;46.40;;;;;;;;;;5056945;28;20443;-77
2022/01/25 15:47:15;;;;;;;94.53;44.90;;;;;;;;;;5068278;28;20456;-76
2022/01/25 15:49:43;;;;;;;95.70;44.88;;;;;;;;;;5055863;28;20510;-77
2022/01/25 15:52:09;;;;;;;88.85;43.17;;;;;;;;;;5080135;28;20518;-76
2022/01/25 15:54:36;;;;;;;91.38;44.20;;;;;;;;;;5073529;28;20424;-76
2022/01/25 15:57:04;;;;;;;101.13;44.85;;;;;;;;;;5074129;28;20439;-75
2022/01/25 15:59:30;;;;;;;101.05;45.42;;;;;;;;;;5074046;28;20477;-77
2022/01/25 16:01:57;;;;;;;97.20;44.88;;;;;;;;;;5041146;28;20429;-76
2022/01/25 16:04:24;;;;;;;93.50;44.50;;;;;;;;;;5059315;28;20489;-77
2022/01/25 16:06:51;;;;;;;94.07;43.65;;;;;;;;;;5041238;28;20431;-74
2022/01/25 16:09:17;;;;;;;90.57;43.17;;;;;;;;;;5067423;28;20513;-76
2022/01/25 16:11:44;;;;;;;94.57;43.88;;;;;;;;;;5060268;28;20982;-77
2022/01/25 16:14:10;;;;;;;101.75;45.85;;;;;;;;;;5060753;28;20427;-76
2022/01/25 16:16:36;;;;;;;94.82;43.85;;;;;;;;;;5077832;28;20442;-77
2022/01/25 16:19:02;;;;;;;97.53;43.63;;;;;;;;;;5060388;28;20435;-74
2022/01/25 16:21:29;;;;;;;94.45;42.90;;;;;;;;;;5060142;28;20434;-76
2022/01/25 16:23:55;;;;;;;90.15;42.88;;;;;;;;;;5059177;28;20431;-76
2022/01/25 16:26:21;;;;;;;98.07;45.72;;;;;;;;;;5075877;28;20451;-76
2022/01/25 16:28:49;;;;;;;93.55;44.25;;;;;;;;;;5043219;28;20420;-76
2022/01/25 16:31:29;;;;;;;95.55;43.83;;;;;;;;;;5059788;28;20441;-76
2022/01/25 16:33:56;;;;;;;99.03;44.17;;;;;;;;;;5059618;28;20428;-76
2022/01/25 16:36:23;;;;;;;99.10;44.70;;;;;;;;;;5057893;28;20481;-76
2022/01/25 16:38:49;;;;;;;95.95;43.88;;;;;;;;;;5061447;28;20434;-77